createdAt,value
2023-01-31T00:00:54.431Z,4.30
2023-01-31T00:06:52.901Z,4.30
2023-01-31T00:09:30.976Z,4.40
2023-01-31T00:12:10.183Z,4.40
2023-01-31T00:14:38.750Z,4.40
2023-01-31T00:17:12.557Z,4.50
2023-01-31T00:19:43.503Z,4.60
2023-01-31T00:22:13.937Z,4.60
2023-01-31T00:24:48.421Z,4.70
2023-01-31T00:27:24.944Z,4.70
2023-01-31T00:29:58.026Z,4.70
2023-01-31T00:32:28.689Z,4.80
2023-01-31T00:34:57.424Z,4.80
2023-01-31T00:37:25.315Z,4.80
2023-01-31T00:39:55.200Z,4.80
2023-01-31T00:42:23.689Z,4.90
2023-01-31T00:44:51.798Z,4.90
2023-01-31T00:47:19.999Z,4.90
2023-01-31T00:49:48.356Z,4.90
2023-01-31T00:52:16.650Z,4.90
2023-01-31T00:54:47.802Z,4.80
2023-01-31T00:57:17.880Z,4.70
2023-01-31T00:59:49.692Z,4.70
2023-01-31T01:02:18.992Z,4.80
2023-01-31T01:04:49.532Z,4.80
2023-01-31T01:07:17.860Z,4.80
2023-01-31T01:10:12.758Z,4.80
2023-01-31T01:12:48.084Z,4.70
2023-01-31T01:15:17.385Z,4.60
2023-01-31T01:17:47.005Z,4.60
2023-01-31T01:20:25.599Z,4.50
2023-01-31T01:23:17.088Z,4.50
2023-01-31T01:25:48.532Z,4.40
2023-01-31T01:28:19.784Z,4.30
2023-01-31T01:31:01.907Z,4.20
2023-01-31T01:33:33.082Z,4.10
2023-01-31T01:36:03.602Z,4.00
2023-01-31T01:38:32.493Z,3.90
2023-01-31T01:41:01.053Z,3.80
2023-01-31T01:43:46.236Z,3.60
2023-01-31T01:46:18.475Z,3.50
2023-01-31T01:49:01.693Z,3.40
2023-01-31T01:51:31.488Z,3.30
2023-01-31T01:54:03.322Z,3.10
2023-01-31T01:56:44.487Z,2.90
2023-01-31T01:59:17.617Z,2.90
2023-01-31T02:01:46.504Z,2.80
2023-01-31T02:04:17.883Z,2.70
2023-01-31T02:06:47.578Z,2.60
2023-01-31T02:09:22.579Z,2.50
2023-01-31T02:11:50.801Z,2.50
2023-01-31T02:14:25.963Z,2.50
2023-01-31T02:16:57.452Z,2.50
2023-01-31T02:19:37.897Z,2.50
2023-01-31T02:22:17.757Z,2.50
2023-01-31T02:24:59.718Z,2.50
2023-01-31T02:27:44.803Z,2.50
2023-01-31T02:30:29.174Z,2.50
2023-01-31T02:33:04.741Z,2.60
2023-01-31T02:35:42.934Z,2.60
2023-01-31T02:38:20.464Z,2.60
2023-01-31T02:40:54.655Z,2.70
2023-01-31T02:43:29.160Z,2.60
2023-01-31T02:46:06.700Z,2.60
2023-01-31T02:48:43.290Z,2.60
2023-01-31T02:51:17.352Z,2.60
2023-01-31T02:53:58.177Z,2.70
2023-01-31T02:56:31.190Z,2.70
2023-01-31T02:59:03.185Z,2.70
2023-01-31T03:01:34.669Z,2.70
2023-01-31T03:04:06.570Z,2.80
2023-01-31T03:06:54.650Z,2.70
2023-01-31T03:09:30.467Z,2.70
2023-01-31T03:12:02.746Z,2.70
2023-01-31T03:14:34.008Z,2.80
2023-01-31T03:17:21.555Z,2.70
2023-01-31T03:19:57.339Z,2.60
2023-01-31T03:22:27.822Z,2.60
2023-01-31T03:24:57.918Z,2.60
2023-01-31T03:27:26.665Z,2.60
2023-01-31T03:29:58.830Z,2.70
2023-01-31T03:32:28.988Z,2.80
2023-01-31T03:34:58.902Z,2.90
2023-01-31T03:37:30.829Z,2.90
2023-01-31T03:40:13.292Z,2.90
2023-01-31T03:42:48.341Z,3.00
2023-01-31T03:45:20.850Z,3.00
2023-01-31T03:47:50.394Z,3.00
2023-01-31T03:50:24.787Z,3.00
2023-01-31T03:52:57.964Z,3.00
2023-01-31T03:55:32.420Z,2.90
2023-01-31T03:58:01.234Z,2.70
2023-01-31T04:00:30.033Z,2.60
2023-01-31T04:03:02.171Z,2.50
2023-01-31T04:05:32.692Z,2.40
2023-01-31T04:08:03.085Z,2.30
2023-01-31T04:10:34.436Z,2.20
2023-01-31T04:13:02.734Z,2.10
2023-01-31T04:15:30.876Z,2.10
2023-01-31T04:17:59.192Z,2.10
2023-01-31T04:20:27.419Z,2.00
2023-01-31T04:22:57.108Z,1.90
2023-01-31T04:25:25.299Z,1.90
2023-01-31T04:27:53.541Z,1.90
2023-01-31T04:30:21.850Z,1.80
2023-01-31T04:32:49.923Z,1.80
2023-01-31T04:35:18.762Z,1.80
2023-01-31T04:37:47.169Z,1.80
2023-01-31T04:40:16.581Z,1.90
2023-01-31T04:42:44.905Z,2.00
2023-01-31T04:45:13.099Z,2.00
2023-01-31T04:47:41.133Z,2.00
2023-01-31T04:50:10.249Z,1.90
2023-01-31T04:52:38.131Z,1.80
2023-01-31T04:55:06.877Z,1.60
2023-01-31T04:57:36.354Z,1.50
2023-01-31T05:00:06.496Z,1.40
2023-01-31T05:02:34.510Z,1.30
2023-01-31T05:05:03.316Z,1.30
2023-01-31T05:07:31.548Z,1.40
2023-01-31T05:09:59.826Z,1.40
2023-01-31T05:12:28.565Z,1.40
2023-01-31T05:14:57.925Z,1.40
2023-01-31T05:17:30.091Z,1.30
2023-01-31T05:19:58.774Z,1.20
2023-01-31T05:22:27.549Z,1.20
2023-01-31T05:24:57.579Z,1.10
2023-01-31T05:27:26.786Z,1.10
2023-01-31T05:29:55.063Z,1.10
2023-01-31T05:32:24.701Z,1.10
2023-01-31T05:34:52.601Z,1.10
2023-01-31T05:37:20.915Z,1.10
2023-01-31T05:39:49.428Z,1.00
2023-01-31T05:42:17.521Z,1.00
2023-01-31T05:44:45.922Z,0.90
2023-01-31T05:47:14.316Z,0.90
2023-01-31T05:49:44.060Z,0.80
2023-01-31T05:52:12.370Z,0.80
2023-01-31T05:54:40.290Z,0.80
2023-01-31T05:57:08.809Z,0.70
2023-01-31T05:59:37.173Z,0.70
2023-01-31T06:02:05.540Z,0.70
2023-01-31T06:04:33.704Z,0.70
2023-01-31T06:07:03.503Z,0.70
2023-01-31T06:09:32.193Z,0.70
2023-01-31T06:12:00.209Z,0.70
2023-01-31T06:14:28.430Z,0.70
2023-01-31T06:16:56.383Z,0.60
2023-01-31T06:19:25.704Z,0.60
2023-01-31T06:21:54.227Z,0.60
2023-01-31T06:24:23.908Z,0.60
2023-01-31T06:26:51.949Z,0.60
2023-01-31T06:29:20.301Z,0.60
2023-01-31T06:31:48.543Z,0.60
2023-01-31T06:34:17.121Z,0.70
2023-01-31T06:36:45.182Z,0.80
2023-01-31T06:39:14.229Z,0.90
2023-01-31T06:41:43.661Z,1.10
2023-01-31T06:44:14.695Z,1.20
2023-01-31T06:46:44.465Z,1.30
2023-01-31T06:49:13.824Z,1.50
2023-01-31T06:51:42.039Z,1.60
2023-01-31T06:54:10.291Z,1.70
2023-01-31T06:56:38.735Z,1.70
2023-01-31T06:59:08.592Z,1.70
2023-01-31T07:01:36.887Z,1.80
2023-01-31T07:04:04.978Z,1.80
2023-01-31T07:06:33.210Z,1.80
2023-01-31T07:09:01.317Z,1.90
2023-01-31T07:11:30.165Z,1.90
2023-01-31T07:13:58.204Z,1.90
2023-01-31T07:16:27.907Z,1.90
2023-01-31T07:18:56.418Z,1.80
2023-01-31T07:21:26.655Z,1.70
2023-01-31T07:23:54.832Z,1.60
2023-01-31T07:26:23.161Z,1.60
2023-01-31T07:28:51.686Z,1.60
2023-01-31T07:31:27.467Z,1.50
2023-01-31T07:33:56.848Z,1.50
2023-01-31T07:36:26.876Z,1.40
2023-01-31T07:38:55.978Z,1.50
2023-01-31T07:41:26.776Z,1.70
2023-01-31T07:43:54.793Z,1.70
2023-01-31T07:46:23.267Z,1.80
2023-01-31T07:48:51.687Z,1.80
2023-01-31T07:51:21.313Z,1.90
2023-01-31T07:53:49.785Z,2.00
2023-01-31T07:56:18.969Z,2.00
2023-01-31T07:58:48.507Z,2.00
2023-01-31T08:01:35.076Z,2.10
2023-01-31T08:04:19.545Z,2.30
2023-01-31T08:06:51.129Z,2.50
2023-01-31T08:09:19.281Z,2.70
2023-01-31T08:11:47.542Z,2.80
2023-01-31T08:14:15.583Z,2.80
2023-01-31T08:16:43.566Z,2.80
2023-01-31T08:19:12.006Z,2.70
2023-01-31T08:21:42.579Z,2.70
2023-01-31T08:24:12.841Z,2.70
2023-01-31T08:26:41.306Z,2.70
2023-01-31T08:29:09.589Z,2.70
2023-01-31T08:31:37.713Z,2.70
2023-01-31T08:34:08.579Z,2.70
2023-01-31T08:36:36.988Z,2.70
2023-01-31T08:39:05.845Z,2.70
2023-01-31T08:41:36.359Z,2.70
2023-01-31T08:44:04.982Z,2.70
2023-01-31T08:46:34.063Z,2.70
2023-01-31T08:49:02.785Z,2.70
2023-01-31T08:51:33.372Z,2.70
2023-01-31T08:54:02.853Z,2.70
2023-01-31T08:56:31.685Z,2.80
2023-01-31T08:59:01.416Z,2.80
2023-01-31T09:01:30.466Z,2.70
2023-01-31T09:03:58.902Z,2.70
2023-01-31T09:06:28.905Z,2.80
2023-01-31T09:08:58.880Z,2.90
2023-01-31T09:11:29.069Z,3.20
2023-01-31T09:13:57.582Z,3.50
2023-01-31T09:16:27.012Z,3.60
2023-01-31T09:18:56.455Z,4.00
2023-01-31T09:21:25.124Z,4.10
2023-01-31T09:23:56.216Z,4.30
2023-01-31T09:26:24.746Z,4.50
2023-01-31T09:28:53.036Z,4.70
2023-01-31T09:31:22.118Z,4.90
2023-01-31T09:33:51.774Z,5.10
2023-01-31T09:36:20.615Z,5.10
2023-01-31T09:38:49.120Z,4.70
2023-01-31T09:41:21.041Z,4.50
2023-01-31T09:43:51.690Z,4.30
2023-01-31T09:46:21.040Z,4.10
2023-01-31T09:48:52.234Z,4.10
2023-01-31T09:51:22.066Z,4.00
2023-01-31T09:53:53.047Z,3.90
2023-01-31T09:56:24.711Z,3.90
2023-01-31T09:58:56.915Z,3.90
2023-01-31T10:01:27.345Z,3.90
2023-01-31T10:04:03.799Z,3.80
2023-01-31T10:06:39.589Z,3.80
2023-01-31T10:09:12.447Z,3.80
2023-01-31T10:11:44.656Z,3.80
2023-01-31T10:14:20.151Z,3.90
2023-01-31T10:16:52.823Z,3.90
2023-01-31T10:19:23.359Z,3.90
2023-01-31T10:21:55.094Z,4.00
2023-01-31T10:24:29.290Z,4.00
2023-01-31T10:27:01.898Z,4.00
2023-01-31T10:29:33.094Z,4.10
2023-01-31T10:32:04.872Z,4.10
2023-01-31T10:34:35.092Z,4.30
2023-01-31T10:37:08.166Z,4.40
2023-01-31T10:39:39.457Z,4.40
2023-01-31T10:42:15.907Z,4.50
2023-01-31T10:44:47.202Z,4.70
2023-01-31T10:47:16.777Z,4.70
2023-01-31T10:49:46.632Z,4.90
2023-01-31T10:52:32.568Z,4.90
2023-01-31T10:55:06.277Z,4.90
2023-01-31T10:57:35.461Z,4.80
2023-01-31T11:00:04.206Z,4.90
2023-01-31T11:02:33.360Z,4.90
2023-01-31T11:05:01.943Z,4.90
2023-01-31T11:07:31.738Z,5.10
2023-01-31T11:10:00.143Z,5.20
2023-01-31T11:12:43.397Z,5.40
2023-01-31T11:15:16.864Z,5.50
2023-01-31T11:17:46.081Z,5.60
2023-01-31T11:20:22.681Z,5.50
2023-01-31T11:22:50.922Z,5.40
2023-01-31T11:25:21.269Z,5.40
2023-01-31T11:27:53.782Z,5.40
2023-01-31T11:30:24.329Z,5.40
2023-01-31T11:32:53.318Z,5.30
2023-01-31T11:35:27.233Z,5.30
2023-01-31T11:37:57.494Z,5.40
2023-01-31T11:40:30.453Z,5.40
2023-01-31T11:43:00.451Z,5.40
2023-01-31T11:45:30.180Z,5.40
2023-01-31T11:47:59.573Z,5.40
2023-01-31T11:50:33.250Z,5.30
2023-01-31T11:53:02.654Z,5.30
2023-01-31T11:55:37.530Z,5.30
2023-01-31T11:58:16.940Z,5.40
2023-01-31T12:00:52.833Z,5.40
2023-01-31T12:03:21.429Z,5.30
2023-01-31T12:05:53.281Z,5.30
2023-01-31T12:08:30.324Z,5.50
2023-01-31T12:10:59.352Z,5.50
2023-01-31T12:13:29.476Z,5.50
2023-01-31T12:15:59.281Z,5.40
2023-01-31T12:18:33.031Z,5.40
2023-01-31T12:21:05.759Z,5.40
2023-01-31T12:23:37.325Z,5.40
2023-01-31T12:26:09.655Z,5.40
2023-01-31T12:28:43.403Z,5.40
2023-01-31T12:31:20.541Z,5.50
2023-01-31T12:33:58.983Z,5.50
2023-01-31T12:36:33.807Z,5.40
2023-01-31T12:39:05.576Z,5.40
2023-01-31T12:41:34.917Z,5.40
2023-01-31T12:44:18.137Z,5.40
2023-01-31T12:47:10.156Z,5.40
2023-01-31T12:49:47.993Z,5.40
2023-01-31T12:52:20.922Z,5.40
2023-01-31T12:54:55.197Z,5.50
2023-01-31T12:57:31.832Z,5.50
2023-01-31T13:00:05.208Z,5.60
2023-01-31T13:02:39.817Z,5.60
2023-01-31T13:05:15.296Z,5.70
2023-01-31T13:07:47.220Z,5.60
2023-01-31T13:10:25.763Z,5.60
2023-01-31T13:12:54.281Z,5.60
2023-01-31T13:15:28.007Z,5.70
2023-01-31T13:18:01.971Z,5.70
2023-01-31T13:20:32.142Z,5.70
2023-01-31T13:23:04.142Z,5.60
2023-01-31T13:25:37.533Z,5.60
2023-01-31T13:28:08.952Z,5.50
2023-01-31T13:30:39.209Z,5.50
2023-01-31T13:33:16.338Z,5.50
2023-01-31T13:35:46.640Z,5.50
2023-01-31T13:38:18.010Z,5.40
2023-01-31T13:40:51.181Z,5.50
2023-01-31T13:43:21.206Z,5.40
2023-01-31T13:45:52.789Z,5.50
2023-01-31T13:48:25.423Z,5.50
2023-01-31T13:50:55.264Z,5.50
2023-01-31T13:53:25.712Z,5.50
2023-01-31T13:55:55.517Z,5.60
2023-01-31T13:58:25.045Z,5.70
2023-01-31T14:01:02.082Z,5.60
2023-01-31T14:03:32.376Z,5.60
2023-01-31T14:06:01.425Z,5.50
2023-01-31T14:08:57.847Z,5.50
2023-01-31T14:11:37.506Z,5.50
2023-01-31T14:14:25.028Z,5.50
2023-01-31T14:16:53.513Z,5.50
2023-01-31T14:19:40.563Z,5.50
2023-01-31T14:22:18.413Z,5.50
2023-01-31T14:25:04.660Z,5.50
2023-01-31T14:27:37.908Z,5.50
2023-01-31T14:30:12.766Z,5.40
2023-01-31T14:32:42.427Z,5.40
2023-01-31T14:35:25.116Z,5.30
2023-01-31T14:37:58.571Z,5.30
2023-01-31T14:40:29.423Z,5.40
2023-01-31T14:43:15.877Z,5.40
2023-01-31T14:45:52.086Z,5.40
2023-01-31T14:48:24.897Z,5.40
2023-01-31T14:50:59.747Z,5.30
2023-01-31T14:53:41.293Z,5.20
2023-01-31T14:56:19.339Z,5.10
2023-01-31T14:58:48.246Z,5.10
2023-01-31T15:01:19.921Z,5.00
2023-01-31T15:03:52.708Z,4.90
2023-01-31T15:06:23.951Z,4.90
2023-01-31T15:09:13.468Z,4.80
2023-01-31T15:11:43.476Z,4.80
2023-01-31T15:14:33.785Z,4.80
2023-01-31T15:17:06.885Z,4.80
2023-01-31T15:19:36.700Z,4.80
2023-01-31T15:22:06.388Z,4.70
2023-01-31T15:24:38.001Z,4.70
2023-01-31T15:27:09.174Z,4.70
2023-01-31T15:29:46.752Z,4.70
2023-01-31T15:32:21.338Z,4.60
2023-01-31T15:34:53.785Z,4.60
2023-01-31T15:37:25.506Z,4.60
2023-01-31T15:39:58.300Z,4.70
2023-01-31T15:42:27.912Z,4.70
2023-01-31T15:45:16.917Z,4.70
2023-01-31T15:47:45.385Z,4.70
2023-01-31T15:50:15.070Z,4.80
2023-01-31T15:52:43.378Z,4.80
2023-01-31T15:55:14.722Z,4.80
2023-01-31T15:57:46.164Z,4.80
2023-01-31T16:00:19.802Z,4.90
2023-01-31T16:02:48.641Z,4.90
2023-01-31T16:05:22.732Z,5.00
2023-01-31T16:07:52.279Z,5.00
2023-01-31T16:10:23.688Z,5.10
2023-01-31T16:12:56.409Z,5.10
2023-01-31T16:15:26.105Z,5.10
2023-01-31T16:17:55.581Z,5.20
2023-01-31T16:20:42.116Z,5.10
2023-01-31T16:23:25.725Z,5.10
2023-01-31T16:26:01.386Z,5.10
2023-01-31T16:28:30.707Z,5.00
2023-01-31T16:31:06.451Z,5.00
2023-01-31T16:33:36.670Z,5.00
2023-01-31T16:36:14.348Z,5.00
2023-01-31T16:38:44.280Z,5.00
2023-01-31T16:41:15.602Z,5.10
2023-01-31T16:43:44.272Z,5.10
2023-01-31T16:46:21.127Z,5.10
2023-01-31T16:49:02.532Z,5.10
2023-01-31T16:51:43.692Z,5.10
2023-01-31T16:54:19.689Z,5.20
2023-01-31T16:57:07.031Z,5.20
2023-01-31T16:59:49.160Z,5.20
2023-01-31T17:02:20.795Z,5.30
2023-01-31T17:04:50.050Z,5.20
2023-01-31T17:07:19.921Z,5.20
2023-01-31T17:09:50.046Z,5.20
2023-01-31T17:12:22.779Z,5.20
2023-01-31T17:14:53.053Z,5.20
2023-01-31T17:17:22.022Z,5.20
2023-01-31T17:19:50.672Z,5.10
2023-01-31T17:22:19.133Z,5.10
2023-01-31T17:24:49.421Z,5.10
2023-01-31T17:27:19.104Z,5.10
2023-01-31T17:29:49.330Z,5.10
2023-01-31T17:32:18.660Z,5.10
2023-01-31T17:34:48.632Z,5.20
2023-01-31T17:37:20.879Z,5.20
2023-01-31T17:39:52.046Z,5.20
2023-01-31T17:42:22.139Z,5.20
2023-01-31T17:44:52.277Z,5.20
2023-01-31T17:47:20.767Z,5.20
2023-01-31T17:49:49.568Z,5.20
2023-01-31T17:52:21.807Z,5.20
2023-01-31T17:54:50.271Z,5.20
2023-01-31T17:57:19.660Z,5.20
2023-01-31T17:59:47.712Z,5.20
2023-01-31T18:02:17.642Z,5.20
2023-01-31T18:04:45.768Z,5.20
2023-01-31T18:07:15.901Z,5.10
2023-01-31T18:09:43.705Z,5.20
2023-01-31T18:12:37.019Z,5.20
2023-01-31T18:15:09.922Z,5.20
2023-01-31T18:17:41.787Z,5.20
2023-01-31T18:20:10.004Z,5.20
2023-01-31T18:22:38.087Z,5.20
2023-01-31T18:25:06.881Z,5.20
2023-01-31T18:27:35.913Z,5.20
2023-01-31T18:30:05.539Z,5.30
2023-01-31T18:32:36.521Z,5.20
2023-01-31T18:35:06.368Z,5.20
2023-01-31T18:37:34.188Z,5.20
2023-01-31T18:40:02.630Z,5.20
2023-01-31T18:42:30.911Z,5.30
2023-01-31T18:44:58.894Z,5.30
2023-01-31T18:47:27.248Z,5.30
2023-01-31T18:49:56.102Z,5.30
2023-01-31T18:52:25.447Z,5.30
2023-01-31T18:54:54.532Z,5.40
2023-01-31T18:57:22.796Z,5.40
2023-01-31T18:59:51.088Z,5.40
2023-01-31T19:02:19.367Z,5.40
2023-01-31T19:04:47.889Z,5.40
2023-01-31T19:07:16.351Z,5.40
2023-01-31T19:09:46.030Z,5.40
2023-01-31T19:12:14.511Z,5.40
2023-01-31T19:14:45.522Z,5.40
2023-01-31T19:17:15.841Z,5.40
2023-01-31T19:19:44.764Z,5.40
2023-01-31T19:22:13.105Z,5.50
2023-01-31T19:24:41.491Z,5.50
2023-01-31T19:27:11.312Z,5.50
2023-01-31T19:29:39.999Z,5.50
2023-01-31T19:32:09.444Z,5.50
2023-01-31T19:34:38.858Z,5.50
2023-01-31T19:37:07.681Z,5.50
2023-01-31T19:39:36.207Z,5.50
2023-01-31T19:42:05.428Z,5.50
2023-01-31T19:44:35.504Z,5.50
2023-01-31T19:47:04.484Z,5.50
2023-01-31T19:49:33.737Z,5.50
2023-01-31T19:52:01.899Z,5.50
2023-01-31T19:54:30.469Z,5.50
2023-01-31T19:56:59.203Z,5.50
2023-01-31T19:59:27.558Z,5.50
2023-01-31T20:01:57.946Z,5.60
2023-01-31T20:04:26.561Z,5.50
2023-01-31T20:06:55.210Z,5.50
2023-01-31T20:09:24.905Z,5.50
2023-01-31T20:11:54.427Z,5.60
2023-01-31T20:14:23.192Z,5.60
2023-01-31T20:16:52.117Z,5.60
2023-01-31T20:19:22.703Z,5.60
2023-01-31T20:21:51.654Z,5.60
2023-01-31T20:24:20.240Z,5.60
2023-01-31T20:26:49.023Z,5.60
2023-01-31T20:29:17.685Z,5.60
2023-01-31T20:31:48.714Z,5.60
2023-01-31T20:34:16.981Z,5.60
2023-01-31T20:36:48.122Z,5.60
2023-01-31T20:39:16.387Z,5.60
2023-01-31T20:41:45.153Z,5.60
2023-01-31T20:44:13.538Z,5.60
2023-01-31T20:46:42.465Z,5.60
2023-01-31T20:49:11.046Z,5.60
2023-01-31T20:51:39.373Z,5.60
2023-01-31T20:54:09.437Z,5.60
2023-01-31T20:56:38.242Z,5.60
2023-01-31T20:59:06.934Z,5.60
2023-01-31T21:01:35.208Z,5.70
2023-01-31T21:04:04.187Z,5.70
2023-01-31T21:06:33.018Z,5.70
2023-01-31T21:09:01.216Z,5.70
2023-01-31T21:11:31.142Z,5.70
2023-01-31T21:14:00.813Z,5.70
2023-01-31T21:16:29.191Z,5.80
2023-01-31T21:18:57.609Z,5.80
2023-01-31T21:21:26.151Z,5.80
2023-01-31T21:23:55.556Z,5.80
2023-01-31T21:26:26.838Z,5.80
2023-01-31T21:28:57.197Z,5.80
2023-01-31T21:31:26.793Z,5.80
2023-01-31T21:33:55.697Z,5.80
2023-01-31T21:36:24.907Z,5.80
2023-01-31T21:38:53.256Z,5.70
2023-01-31T21:41:38.868Z,5.70
2023-01-31T21:44:09.873Z,5.70
2023-01-31T21:46:38.039Z,5.70
2023-01-31T21:49:06.536Z,5.70
2023-01-31T21:51:34.623Z,5.70
2023-01-31T21:54:05.638Z,5.70
2023-01-31T21:56:34.540Z,5.70
2023-01-31T21:59:03.676Z,5.70
2023-01-31T22:01:35.558Z,5.70
2023-01-31T22:04:04.288Z,5.60
2023-01-31T22:06:36.338Z,5.70
2023-01-31T22:09:06.319Z,5.70
2023-01-31T22:11:38.479Z,5.70
2023-01-31T22:14:08.837Z,5.70
2023-01-31T22:16:39.680Z,5.60
2023-01-31T22:19:09.197Z,5.70
2023-01-31T22:21:38.477Z,5.60
2023-01-31T22:24:07.720Z,5.60
2023-01-31T22:26:37.358Z,5.60
2023-01-31T22:29:08.278Z,5.50
2023-01-31T22:31:36.620Z,5.50
2023-01-31T22:34:07.122Z,5.40
2023-01-31T22:36:36.739Z,5.50
2023-01-31T22:39:05.315Z,5.40
2023-01-31T22:41:33.585Z,5.40
2023-01-31T22:44:06.420Z,5.40
2023-01-31T22:46:36.582Z,5.40
2023-01-31T22:49:09.505Z,5.40
2023-01-31T22:51:38.928Z,5.40
2023-01-31T22:54:09.737Z,5.40
2023-01-31T22:56:52.071Z,5.40
2023-01-31T22:59:22.488Z,5.40
2023-01-31T23:01:50.819Z,5.40
2023-01-31T23:04:23.164Z,5.40
2023-01-31T23:06:55.136Z,5.30
2023-01-31T23:09:23.274Z,5.40
2023-01-31T23:11:53.766Z,5.30
2023-01-31T23:14:33.226Z,5.30
2023-01-31T23:17:27.568Z,5.40
2023-01-31T23:19:58.726Z,5.30
2023-01-31T23:22:29.889Z,5.30
2023-01-31T23:24:59.484Z,5.30
2023-01-31T23:27:30.891Z,5.30
2023-01-31T23:30:08.633Z,5.30
2023-01-31T23:32:42.104Z,5.30
2023-01-31T23:38:00.199Z,5.40
2023-01-31T23:40:31.379Z,5.40
2023-01-31T23:43:02.586Z,5.40
2023-01-31T23:45:33.487Z,5.40
2023-01-31T23:48:04.869Z,5.40
2023-01-31T23:50:37.182Z,5.40
2023-01-31T23:53:05.948Z,5.40
2023-01-31T23:55:39.786Z,5.40
2023-01-31T23:58:09.787Z,5.40
